Terminal Aerodrome Forecast
Issued by NWS

Current Version | Previous Version | Graphics & Text | Print | Product List | Glossary On
Versions: 1 2 3 4 5 6 7 8 9 10 11 12 13 14 15 16 17 18 19 20
550
FTUS41 KPBZ 132010 AAB
TAFMGW
TAF AMD
KMGW 132010Z 1320/1418 23008KT 2SM -SN OVC025
      TEMPO 1320/1323 1SM -SN OVC015
     FM132300 22007KT 3SM -SHSN BKN050
     FM140600 24012G22KT 2SM -SHSN OVC010
     FM141400 30008KT P6SM BKN020=

USA.gov is the U.S. government's official web portal to all federal, state and local government web resources and services.